Date,TemperatureHighF,TemperatureAvgF,TemperatureLowF,DewpointHighF,DewpointAvgF,DewpointLowF,HumidityHigh,HumidityAvg,HumidityLow,PressureMaxIn,PressureMinIn,WindSpeedMaxMPH,WindSpeedAvgMPH,GustSpeedMaxMPH,PrecipitationSumIn
2013-4-1,67,64,60,36,30,24,39,29,20,30.40,30.29,8,2,9,0.00
2013-4-2,76,66,59,36,30,20,37,27,13,30.32,30.23,7,2,9,0.00
2013-4-3,69,62,52,36,34,30,45,36,23,30.32,30.26,6,1,9,0.00
2013-4-4,73,66,61,37,34,31,39,30,21,30.35,30.29,6,2,10,0.00
2013-4-5,67,64,60,39,36,34,39,35,31,30.32,30.23,9,2,9,0.00
2013-4-6,78,67,59,39,32,22,49,30,13,30.32,30.20,11,2,15,0.00
2013-4-7,80,64,52,37,32,18,50,32,12,30.20,30.05,11,2,13,0.00
2013-4-8,76,65,57,39,20,6,45,22,8,30.05,29.87,15,4,25,0.04
2013-4-9,82,66,49,17,9,5,27,11,7,30.23,30.05,13,3,15,0.00
2013-4-10,88,68,52,20,10,4,18,11,6,30.32,30.20,12,2,19,0.00
2013-4-11,86,68,53,30,14,4,29,13,6,30.26,30.02,11,2,17,0.00
2013-4-12,84,68,58,34,28,16,37,25,8,30.11,29.99,11,2,13,0.00
2013-4-13,71,63,58,37,34,31,41,34,23,30.14,30.05,10,3,14,0.00
2013-4-14,66,60,56,37,34,28,48,37,25,30.11,30.05,9,2,12,0.04
2013-4-15,65,58,55,39,35,30,53,43,28,30.14,30.05,8,2,11,0.08
2013-4-16,73,60,52,34,18,3,45,24,9,30.20,30.11,14,3,17,0.00
2013-4-17,79,62,46,12,7,1,22,11,8,30.35,30.20,15,3,19,0.00
2013-4-18,85,67,50,12,8,3,14,10,6,30.43,30.32,11,3,17,0.00
2013-4-19,92,71,53,20,10,4,13,10,6,30.40,30.20,13,3,18,0.00
2013-4-20,95,73,52,20,11,4,18,10,6,30.23,30.11,12,2,16,0.00
2013-4-21,92,74,55,32,20,9,31,15,6,30.23,30.14,11,3,14,0.00
2013-4-22,86,70,58,36,28,15,36,24,8,30.23,30.11,11,3,15,0.00
2013-4-23,85,69,60,36,28,15,36,24,8,30.20,30.08,11,3,15,0.00
2013-4-24,71,64,59,36,32,27,37,31,23,30.20,30.14,10,3,15,0.00
2013-4-25,76,64,57,36,28,14,42,27,10,30.35,30.17,10,2,13,0.00
2013-4-26,87,68,51,36,25,15,46,24,8,30.38,30.32,10,2,15,0.00
2013-4-27,90,71,54,34,25,16,39,22,7,30.38,30.23,11,2,13,0.00
2013-4-28,91,71,57,41,30,16,47,26,7,30.26,30.08,11,3,14,0.00
2013-4-29,87,71,59,43,32,16,49,27,8,30.14,30.02,11,3,15,0.00
2013-4-30,79,68,58,36,31,17,39,27,10,30.14,30.05,11,3,13,0.00